Airfield :
LOGIN :

Register | Disclaimer

   EN    FR    IT 

 










Legend :    VFR   Marginal VFR   IFR   Intensive IFR   Very Intensive IFR
Visi :
Ceiling :
>= 8 km
>= 3000ft
5 to 8 km
1000 to 3000 ft
1500m to 5 km
500 to 1000 ft
800 to 1500m
200 to 500 ft
< 800m
< 200 ft
Symbols :   Thunderstorms  Fog  Heavy snow  Heavy precipitations  Wind > 20 kt
SIGMETs :     Misc.  Thunderstorms  Icing  Turbulence  Mountain Waves  Volcanic Ashes






- Airport Elevation : 364 ft
- IATA code : FRA


EDDF - Frankfurt Int.

CURRENT METAR :
  • 022120Z 21002KT CAVOK 17/10 Q1011 NOSIG

EXPIRED METARs :
  • 022050Z 24003KT CAVOK 18/09 Q1011 NOSIG
  • 022020Z VRB01KT CAVOK 19/10 Q1011 NOSIG
  • 021950Z VRB02KT CAVOK 20/09 Q1011 NOSIG
  • 021920Z 22003KT CAVOK 21/09 Q1011 NOSIG
  • 021850Z 26003KT CAVOK 23/09 Q1012 NOSIG

TAF TAF EDDF
Valid from the 02 at 18:00 until the 04 at 00:00 UTC


021700Z 0218/0324 07004KT CAVOK
BECMG 0308/0311 23005KT
BECMG 0311/0314 29006KT
PROB30
TEMPO 0312/0318 27020G35KT TSRA BKN060CB
BECMG 0318/0321 VRB03KT



MET'MAP, your aeronautical weather chart ! - Copyright ORBIFLY December 2007 - Disclaimer

ORBIFLY MET'MAP TEAM :

Programming & Development : Alexandra Zaïnal
Concept & original design : Baudouin d'Aumeries
Assistance for programming : Marc-Olivier Méhu
Technical & hardware support : Manuel Goepfert

Contact : metmap@orbifly.com




SOURCES & CREDITS :

   NOAA